Time;durP1;ratioP1;P1;durP2;ratioP2;P2;SDS_P1;SDS_P2;PMS_P1;PMS_P2;Temp;Humidity;BMP_temperature;BMP_pressure;BME280_temperature;BME280_humidity;BME280_pressure;Samples;Min_cycle;Max_cycle;Signal;HPM_P1;HPM_P2
2021/03/24 00:00:10;;;;;;;38.27;22.07;;;6.30;99.90;;;;;;5024790;28;20455;-76
2021/03/24 00:02:36;;;;;;;42.40;22.23;;;6.30;99.90;;;;;;5024908;28;20232;-75
2021/03/24 00:05:15;;;;;;;43.03;23.90;;;6.30;99.90;;;;;;5023124;28;20786;-75
2021/03/24 00:07:41;;;;;;;39.90;22.50;;;6.30;99.90;;;;;;5025201;28;20189;-75
2021/03/24 00:10:09;;;;;;;37.30;22.77;;;6.30;99.90;;;;;;5023729;28;20470;-75
2021/03/24 00:12:35;;;;;;;39.90;25.97;;;6.30;99.90;;;;;;5024332;28;20429;-76
2021/03/24 00:15:03;;;;;;;41.47;24.90;;;6.30;99.90;;;;;;5024227;28;20563;-76
2021/03/24 00:17:29;;;;;;;42.93;25.20;;;6.30;99.90;;;;;;5024747;28;20490;-75
2021/03/24 00:19:54;;;;;;;39.90;23.77;;;6.30;99.90;;;;;;5022980;28;20456;-76
2021/03/24 00:22:20;;;;;;;47.27;24.80;;;6.30;99.90;;;;;;5023657;28;20182;-76
2021/03/24 00:24:46;;;;;;;43.87;25.43;;;6.30;99.90;;;;;;5022399;28;20182;-76
2021/03/24 00:27:11;;;;;;;42.27;25.17;;;6.40;99.90;;;;;;5023855;28;20273;-75
2021/03/24 00:29:37;;;;;;;52.83;28.30;;;6.30;99.90;;;;;;5024254;28;20179;-76
2021/03/24 00:32:03;;;;;;;50.13;27.97;;;6.30;99.90;;;;;;5024697;28;20194;-76
2021/03/24 00:34:29;;;;;;;48.93;26.53;;;6.30;99.90;;;;;;5025097;28;20507;-76
2021/03/24 00:36:55;;;;;;;48.97;26.37;;;6.30;99.90;;;;;;5023275;28;20471;-75
2021/03/24 00:39:20;;;;;;;50.07;24.80;;;6.30;99.90;;;;;;5023816;28;20614;-76
2021/03/24 00:41:46;;;;;;;44.07;24.10;;;6.30;99.90;;;;;;5023611;28;20217;-76
2021/03/24 00:44:12;;;;;;;45.23;26.50;;;6.30;99.90;;;;;;5022199;28;20694;-76
2021/03/24 00:46:38;;;;;;;41.93;25.07;;;6.30;99.90;;;;;;5023330;28;20596;-75
2021/03/24 00:49:04;;;;;;;56.20;27.67;;;6.30;99.90;;;;;;5006576;28;20439;-76
2021/03/24 00:51:29;;;;;;;51.90;27.40;;;6.30;99.90;;;;;;5007360;28;20220;-75
2021/03/24 00:53:55;;;;;;;49.17;26.40;;;6.30;99.90;;;;;;5007536;28;20201;-75
2021/03/24 00:56:22;;;;;;;49.43;26.10;;;6.30;99.90;;;;;;5023039;28;20628;-76
2021/03/24 00:58:47;;;;;;;54.77;29.53;;;6.30;99.90;;;;;;5021800;28;20359;-75
2021/03/24 01:01:13;;;;;;;48.73;28.13;;;6.30;99.90;;;;;;5024163;28;20445;-76
2021/03/24 01:03:38;;;;;;;51.20;30.00;;;6.30;99.90;;;;;;5023453;28;20212;-75
2021/03/24 01:06:04;;;;;;;51.33;27.23;;;6.30;99.90;;;;;;5023276;28;20207;-75
2021/03/24 01:08:30;;;;;;;52.50;26.37;;;6.30;99.90;;;;;;5022533;28;20627;-75
2021/03/24 01:10:56;;;;;;;49.73;27.80;;;6.30;99.90;;;;;;5021423;28;20185;-75
2021/03/24 01:13:24;;;;;;;48.93;27.43;;;6.30;99.90;;;;;;5023749;28;20174;-75
2021/03/24 01:15:50;;;;;;;46.53;28.00;;;6.20;99.90;;;;;;5023208;28;20438;-76
2021/03/24 01:18:18;;;;;;;57.03;29.27;;;6.20;99.90;;;;;;5022814;28;20456;-75
2021/03/24 01:20:44;;;;;;;53.63;29.73;;;6.20;99.90;;;;;;5023301;28;20837;-76
2021/03/24 01:23:10;;;;;;;52.80;29.00;;;6.20;99.90;;;;;;5005782;28;20484;-75
2021/03/24 01:25:37;;;;;;;54.73;28.30;;;6.30;99.90;;;;;;5022806;28;20433;-75
2021/03/24 01:28:05;;;;;;;52.77;27.93;;;6.30;99.90;;;;;;5022783;28;20422;-75
2021/03/24 01:30:32;;;;;;;55.90;28.67;;;6.20;99.90;;;;;;5024921;28;20453;-75
2021/03/24 01:32:58;;;;;;;53.50;29.80;;;6.20;99.90;;;;;;5006739;28;20482;-75
2021/03/24 01:35:25;;;;;;;51.60;28.73;;;6.30;99.90;;;;;;5022002;28;20441;-75
2021/03/24 01:37:51;;;;;;;51.73;26.57;;;6.30;99.90;;;;;;5022274;28;20476;-75
2021/03/24 01:40:31;;;;;;;55.50;26.80;;;6.30;99.90;;;;;;5023882;28;20433;-75
2021/03/24 01:43:00;;;;;;;57.30;28.30;;;6.30;99.90;;;;;;5020905;28;20457;-75
2021/03/24 01:45:26;;;;;;;60.70;30.23;;;6.30;99.90;;;;;;5022546;28;20433;-75
2021/03/24 01:47:54;;;;;;;57.93;29.80;;;6.30;99.90;;;;;;5023155;28;20446;-75
2021/03/24 01:50:26;;;;;;;55.93;29.40;;;6.20;99.90;;;;;;5022176;28;20667;-75
2021/03/24 01:52:52;;;;;;;48.10;27.77;;;6.20;99.90;;;;;;5022097;28;20436;-75
2021/03/24 01:55:19;;;;;;;58.00;29.10;;;6.20;99.90;;;;;;5004707;28;20973;-75
2021/03/24 01:57:45;;;;;;;51.53;27.80;;;6.20;99.90;;;;;;5023184;28;20496;-75
2021/03/24 02:00:19;;;;;;;54.50;29.40;;;6.20;99.90;;;;;;5022669;28;20428;-75
2021/03/24 02:02:45;;;;;;;50.90;27.60;;;6.20;99.90;;;;;;5023304;28;20468;-75
2021/03/24 02:05:11;;;;;;;53.50;29.70;;;6.20;99.90;;;;;;5022287;28;20428;-75
2021/03/24 02:08:03;;;;;;;59.00;29.90;;;6.30;99.90;;;;;;5021700;28;20192;-75
2021/03/24 02:10:38;;;;;;;64.40;31.53;;;6.30;99.90;;;;;;5021910;28;20808;-75
2021/03/24 02:13:24;;;;;;;56.40;30.40;;;6.30;99.90;;;;;;5022464;28;20421;-74
2021/03/24 02:16:15;;;;;;;54.73;30.17;;;6.20;99.90;;;;;;5021165;28;20432;-75
2021/03/24 02:18:43;;;;;;;56.93;28.23;;;6.30;99.90;;;;;;5022248;28;20457;-74
2021/03/24 02:21:14;;;;;;;61.67;28.17;;;6.30;99.90;;;;;;5020927;28;21499;-75
2021/03/24 02:23:39;;;;;;;61.10;29.27;;;6.30;99.90;;;;;;5022069;28;20422;-75
2021/03/24 02:26:28;;;;;;;65.37;31.60;;;6.20;99.90;;;;;;5020464;28;20809;-73
2021/03/24 02:28:57;;;;;;;64.20;30.40;;;6.20;99.90;;;;;;5022472;28;20739;-74
2021/03/24 02:31:25;;;;;;;53.53;29.33;;;6.30;99.90;;;;;;5022018;28;20445;-74
2021/03/24 02:33:54;;;;;;;56.83;29.70;;;6.30;99.90;;;;;;5021348;28;20443;-74
2021/03/24 02:36:21;;;;;;;57.80;31.00;;;6.30;99.90;;;;;;5021359;28;20484;-74
2021/03/24 02:38:50;;;;;;;59.73;29.07;;;6.20;99.90;;;;;;5022084;28;20472;-74
2021/03/24 02:41:17;;;;;;;62.70;32.90;;;6.20;99.90;;;;;;5019681;28;20428;-75
2021/03/24 02:43:43;;;;;;;67.10;34.53;;;6.20;99.90;;;;;;5021323;28;20935;-74
2021/03/24 02:46:11;;;;;;;60.67;30.57;;;6.20;99.90;;;;;;5021027;28;20815;-75
2021/03/24 02:48:40;;;;;;;61.73;31.93;;;6.10;99.90;;;;;;5021145;28;20832;-75
2021/03/24 02:51:12;;;;;;;61.13;31.27;;;6.20;99.90;;;;;;5021482;28;20429;-73
2021/03/24 02:53:40;;;;;;;68.57;34.27;;;6.20;99.90;;;;;;5022374;28;20445;-74
2021/03/24 02:56:08;;;;;;;61.10;31.13;;;6.10;99.90;;;;;;5005616;28;21135;-74
2021/03/24 02:58:34;;;;;;;61.37;31.23;;;6.10;99.90;;;;;;5022003;28;20465;-74
2021/03/24 03:01:05;;;;;;;64.57;32.10;;;6.10;99.90;;;;;;5021808;28;20814;-74
2021/03/24 03:03:38;;;;;;;69.67;33.17;;;6.20;99.90;;;;;;5022158;28;20424;-74
2021/03/24 03:06:08;;;;;;;60.37;31.37;;;6.20;99.90;;;;;;5020878;28;20491;-75
2021/03/24 03:08:38;;;;;;;71.00;33.50;;;6.10;99.90;;;;;;5004822;28;21120;-75
2021/03/24 03:11:20;;;;;;;61.10;31.83;;;6.10;99.90;;;;;;5021190;28;20430;-74
2021/03/24 03:13:51;;;;;;;64.23;32.87;;;6.10;99.90;;;;;;5020167;28;20844;-74
2021/03/24 03:16:47;;;;;;;59.13;29.87;;;6.10;99.90;;;;;;5021676;28;21225;-75
2021/03/24 03:19:24;;;;;;;68.90;34.07;;;6.10;99.90;;;;;;5001349;28;20535;-74
2021/03/24 03:22:05;;;;;;;73.13;33.43;;;6.00;99.90;;;;;;5021922;28;20440;-75
2021/03/24 03:24:38;;;;;;;63.00;31.77;;;6.10;99.90;;;;;;5020946;28;21602;-75
2021/03/24 03:27:07;;;;;;;64.27;31.40;;;6.10;99.90;;;;;;5022092;28;20432;-75
2021/03/24 03:29:33;;;;;;;62.10;30.73;;;6.10;99.90;;;;;;5021486;28;20571;-74
2021/03/24 03:32:02;;;;;;;67.80;33.83;;;6.10;99.90;;;;;;5021541;28;20429;-74
2021/03/24 03:34:28;;;;;;;64.37;34.50;;;6.10;99.90;;;;;;5008248;28;20433;-74
2021/03/24 03:36:55;;;;;;;63.50;32.80;;;6.10;99.90;;;;;;5024288;28;20552;-75
2021/03/24 03:39:25;;;;;;;68.80;32.97;;;6.10;99.90;;;;;;5025680;28;20413;-74
2021/03/24 03:41:53;;;;;;;63.40;31.87;;;6.10;99.90;;;;;;5025011;28;20754;-74
2021/03/24 03:44:21;;;;;;;56.30;29.63;;;6.10;99.90;;;;;;5022854;28;20421;-75
2021/03/24 03:46:49;;;;;;;63.47;31.80;;;6.10;99.90;;;;;;5024623;28;20429;-74
2021/03/24 03:49:16;;;;;;;64.13;33.30;;;6.10;99.90;;;;;;5025214;28;20902;-74
2021/03/24 03:51:46;;;;;;;67.93;32.33;;;6.10;99.90;;;;;;5023918;28;20885;-74
2021/03/24 03:54:43;;;;;;;64.97;32.50;;;6.10;99.90;;;;;;5025080;28;20526;-75
2021/03/24 03:57:19;;;;;;;59.87;30.80;;;6.10;99.90;;;;;;5024314;28;20460;-74
2021/03/24 03:59:56;;;;;;;65.03;32.50;;;6.10;99.90;;;;;;5024857;28;20916;-74
2021/03/24 04:02:31;;;;;;;67.40;32.73;;;6.10;99.90;;;;;;5024061;28;20429;-75
2021/03/24 04:05:08;;;;;;;72.00;32.20;;;6.10;99.90;;;;;;5024149;28;20521;-75
2021/03/24 04:07:42;;;;;;;58.27;28.90;;;6.20;99.90;;;;;;5025383;28;20421;-75
2021/03/24 04:10:08;;;;;;;70.17;33.37;;;6.20;99.90;;;;;;5024975;28;20426;-75
2021/03/24 04:12:37;;;;;;;61.57;31.67;;;6.30;99.90;;;;;;5024900;28;20913;-74
2021/03/24 04:15:08;;;;;;;63.00;33.80;;;6.30;99.90;;;;;;5023509;28;20511;-75
2021/03/24 04:17:41;;;;;;;69.37;32.47;;;6.20;99.90;;;;;;5025289;28;20575;-75
2021/03/24 04:20:09;;;;;;;68.63;30.50;;;6.10;99.90;;;;;;5023502;28;20468;-75
2021/03/24 04:22:35;;;;;;;66.07;32.93;;;6.10;99.90;;;;;;5022977;28;20894;-74
2021/03/24 04:25:01;;;;;;;74.37;33.67;;;6.10;99.90;;;;;;5022416;28;20433;-75
2021/03/24 04:27:32;;;;;;;75.47;33.47;;;6.20;99.90;;;;;;5024772;28;20202;-75
2021/03/24 04:30:05;;;;;;;66.27;32.57;;;6.10;99.90;;;;;;5023248;28;20431;-76
2021/03/24 04:32:31;;;;;;;66.23;31.67;;;6.10;99.90;;;;;;5023218;28;20481;-75
2021/03/24 04:34:57;;;;;;;78.57;34.27;;;6.00;99.90;;;;;;5024514;28;20478;-75
2021/03/24 04:37:46;;;;;;;63.73;31.27;;;6.00;99.90;;;;;;5023434;28;20214;-74
2021/03/24 04:40:33;;;;;;;65.20;29.60;;;6.00;99.90;;;;;;5023886;28;20202;-74
2021/03/24 04:43:11;;;;;;;67.73;32.30;;;6.00;99.90;;;;;;5024087;28;20442;-75
2021/03/24 04:45:46;;;;;;;66.93;31.60;;;6.10;99.90;;;;;;5023217;28;20429;-75
2021/03/24 04:48:36;;;;;;;58.83;30.83;;;6.10;99.90;;;;;;5024313;28;20468;-74
2021/03/24 04:51:21;;;;;;;67.00;31.83;;;6.00;99.90;;;;;;5022751;28;20436;-74
2021/03/24 04:53:52;;;;;;;63.60;32.17;;;6.10;99.90;;;;;;5024695;28;20517;-75
2021/03/24 04:56:20;;;;;;;60.27;31.53;;;6.00;99.90;;;;;;5021766;28;20428;-74
2021/03/24 04:58:52;;;;;;;66.07;33.17;;;6.00;99.90;;;;;;5023806;28;20471;-75
2021/03/24 05:01:31;;;;;;;68.47;35.10;;;6.00;99.90;;;;;;5023312;28;20788;-74
2021/03/24 05:04:12;;;;;;;76.37;35.30;;;6.00;99.90;;;;;;5023201;28;20421;-75
2021/03/24 05:06:43;;;;;;;68.40;33.00;;;6.00;99.90;;;;;;5023125;28;20433;-74
2021/03/24 05:09:10;;;;;;;71.77;32.70;;;6.00;99.90;;;;;;5023610;28;20436;-74
2021/03/24 05:11:40;;;;;;;67.23;34.33;;;6.00;99.90;;;;;;5022220;28;20433;-75
2021/03/24 05:14:26;;;;;;;69.10;31.43;;;6.00;99.90;;;;;;5024044;28;20443;-73
2021/03/24 05:17:17;;;;;;;75.70;35.87;;;6.00;99.90;;;;;;5021489;28;20771;-73
2021/03/24 05:19:44;;;;;;;78.43;35.50;;;6.10;99.90;;;;;;5022726;28;20771;-74
2021/03/24 05:22:29;;;;;;;79.87;35.20;;;6.00;99.90;;;;;;5007813;28;20425;-74
2021/03/24 05:25:28;;;;;;;61.70;30.83;;;6.00;99.90;;;;;;5023174;28;20459;-74
2021/03/24 05:27:58;;;;;;;71.97;34.57;;;6.00;99.90;;;;;;4947238;28;20438;-74
2021/03/24 05:30:28;;;;;;;73.87;37.00;;;6.00;99.90;;;;;;5021109;28;20433;-74
2021/03/24 05:33:10;;;;;;;76.07;37.17;;;6.00;99.90;;;;;;5022832;28;20458;-74
2021/03/24 05:35:35;;;;;;;71.70;34.00;;;6.00;99.90;;;;;;5022254;28;20443;-74
2021/03/24 05:38:07;;;;;;;71.63;31.80;;;6.00;99.90;;;;;;5023081;28;20945;-74
2021/03/24 05:40:53;;;;;;;73.27;34.97;;;6.00;99.90;;;;;;5022070;28;20189;-74
2021/03/24 05:43:46;;;;;;;75.70;34.67;;;6.10;99.90;;;;;;5022476;28;20501;-74
2021/03/24 05:46:22;;;;;;;66.63;33.07;;;6.00;99.90;;;;;;5019834;28;20436;-74
2021/03/24 05:49:18;;;;;;;79.33;35.37;;;6.10;99.90;;;;;;5013308;28;20485;-74
2021/03/24 05:52:19;;;;;;;74.50;32.90;;;6.10;99.90;;;;;;5021821;28;20948;-73
2021/03/24 05:55:23;;;;;;;69.40;35.13;;;6.10;99.90;;;;;;5018418;28;20487;-74
2021/03/24 05:58:10;;;;;;;83.83;36.60;;;6.10;99.90;;;;;;4950774;29;20483;-74
2021/03/24 06:00:52;;;;;;;73.53;36.07;;;6.10;99.90;;;;;;5017148;28;20764;-74
2021/03/24 06:03:32;;;;;;;73.83;35.07;;;6.10;99.90;;;;;;5021613;28;20434;-74
2021/03/24 06:06:39;;;;;;;68.73;34.67;;;6.10;99.90;;;;;;5020849;28;20428;-73
2021/03/24 06:09:26;;;;;;;75.67;33.33;;;6.20;99.90;;;;;;4939734;28;20946;-74
2021/03/24 06:12:21;;;;;;;74.17;35.00;;;6.20;99.90;;;;;;5019860;28;20452;-74
2021/03/24 06:15:10;;;;;;;77.60;35.20;;;6.20;99.90;;;;;;5020395;28;20527;-74
2021/03/24 06:17:48;;;;;;;83.60;35.43;;;6.20;99.90;;;;;;5017587;28;20444;-73
2021/03/24 06:20:26;;;;;;;70.97;35.40;;;6.20;99.90;;;;;;5017668;28;20740;-74
2021/03/24 06:23:13;;;;;;;66.30;35.93;;;6.20;99.90;;;;;;5018728;28;20436;-73
2021/03/24 06:25:46;;;;;;;70.60;32.50;;;6.20;99.90;;;;;;5020062;28;20447;-74
2021/03/24 06:28:32;;;;;;;73.80;34.80;;;6.30;99.90;;;;;;5019005;28;20490;-74
2021/03/24 06:31:20;;;;;;;69.60;35.67;;;6.30;99.90;;;;;;5021590;28;20438;-73
2021/03/24 06:34:22;;;;;;;72.00;36.87;;;6.30;99.90;;;;;;5013617;28;20439;-73
2021/03/24 06:37:03;;;;;;;81.37;36.27;;;6.30;99.90;;;;;;5019979;28;20443;-74
2021/03/24 06:39:49;;;;;;;73.03;34.53;;;6.40;99.90;;;;;;5020578;28;20437;-73
2021/03/24 06:42:27;;;;;;;75.33;35.07;;;6.40;99.90;;;;;;5019392;28;20441;-74
2021/03/24 06:45:18;;;;;;;64.70;33.97;;;6.40;99.90;;;;;;5016067;28;20432;-74
2021/03/24 06:48:00;;;;;;;61.33;32.23;;;6.40;99.90;;;;;;5019770;28;20507;-73
2021/03/24 06:50:53;;;;;;;66.77;36.60;;;6.40;99.90;;;;;;5022011;28;20435;-74
2021/03/24 06:53:33;;;;;;;71.23;35.80;;;6.50;99.90;;;;;;5021273;28;20799;-74
2021/03/24 06:56:25;;;;;;;69.80;37.63;;;6.50;99.90;;;;;;5018775;28;20925;-74
2021/03/24 06:59:09;;;;;;;65.50;34.37;;;6.50;99.90;;;;;;5021139;28;20460;-73
2021/03/24 07:02:02;;;;;;;71.97;34.23;;;6.50;99.90;;;;;;5021247;28;20445;-74
2021/03/24 07:04:55;;;;;;;72.60;33.70;;;6.60;99.90;;;;;;5020729;28;20439;-74
2021/03/24 07:07:45;;;;;;;75.10;35.90;;;6.60;99.90;;;;;;5022110;28;20768;-74
2021/03/24 07:10:32;;;;;;;68.43;34.77;;;6.70;99.90;;;;;;5023847;28;20438;-74
2021/03/24 07:13:25;;;;;;;72.63;35.43;;;6.70;99.90;;;;;;5025185;28;20456;-74
2021/03/24 07:16:03;;;;;;;66.10;33.57;;;6.80;99.90;;;;;;5024411;28;20498;-74
2021/03/24 07:19:02;;;;;;;72.57;36.50;;;6.80;99.90;;;;;;5024266;28;20467;-73
2021/03/24 07:22:02;;;;;;;73.13;33.77;;;6.80;99.90;;;;;;5024121;28;20439;-74
2021/03/24 07:24:51;;;;;;;69.13;34.53;;;7.00;99.90;;;;;;5023330;28;20802;-74
2021/03/24 07:27:24;;;;;;;80.57;36.10;;;6.90;99.90;;;;;;5021954;28;20547;-73
2021/03/24 07:30:04;;;;;;;72.70;34.70;;;6.90;99.90;;;;;;5025138;28;20432;-73
2021/03/24 07:32:39;;;;;;;86.87;36.57;;;7.00;99.90;;;;;;5025765;28;20444;-76
2021/03/24 07:35:34;;;;;;;69.43;35.20;;;7.00;99.90;;;;;;5007843;28;20432;-76
2021/03/24 07:38:40;;;;;;;76.47;34.80;;;7.00;99.90;;;;;;5022466;28;20499;-76
2021/03/24 07:41:35;;;;;;;78.20;38.90;;;7.10;99.90;;;;;;5014636;28;20839;-76
2021/03/24 07:44:25;;;;;;;70.77;35.80;;;7.10;99.90;;;;;;5024313;28;20439;-76
2021/03/24 07:47:13;;;;;;;72.23;36.30;;;7.20;99.90;;;;;;5021317;28;22094;-76
2021/03/24 07:50:09;;;;;;;67.47;35.07;;;7.30;99.90;;;;;;5023850;28;20829;-75
2021/03/24 07:52:59;;;;;;;63.03;32.70;;;7.30;99.90;;;;;;5024203;28;20566;-76
2021/03/24 07:55:32;;;;;;;76.83;36.40;;;7.40;99.90;;;;;;5021520;28;20429;-76
2021/03/24 07:58:16;;;;;;;78.73;35.73;;;7.50;99.90;;;;;;5024530;28;20484;-76
2021/03/24 08:00:48;;;;;;;75.50;35.80;;;7.60;99.90;;;;;;5022723;28;20511;-76
2021/03/24 08:03:23;;;;;;;69.17;36.67;;;7.70;99.90;;;;;;5024266;28;20432;-76
2021/03/24 08:06:04;;;;;;;76.50;36.37;;;7.70;99.90;;;;;;5024604;28;20914;-76
2021/03/24 08:09:08;;;;;;;81.90;39.17;;;7.70;99.90;;;;;;5024064;28;20558;-76
2021/03/24 08:11:57;;;;;;;74.43;36.37;;;7.70;99.90;;;;;;5023263;28;20443;-76
2021/03/24 08:14:44;;;;;;;72.83;36.27;;;7.80;99.90;;;;;;4998527;28;21019;-78
2021/03/24 08:17:39;;;;;;;71.40;35.23;;;7.80;99.90;;;;;;5022527;28;20468;-75
2021/03/24 08:20:35;;;;;;;67.00;34.37;;;7.90;99.90;;;;;;5023115;28;20437;-75
2021/03/24 08:23:13;;;;;;;74.93;37.57;;;8.00;99.90;;;;;;5022593;28;20429;-77
2021/03/24 08:25:54;;;;;;;70.67;33.23;;;8.10;99.90;;;;;;5011332;28;20842;-76
2021/03/24 08:28:42;;;;;;;73.20;34.50;;;8.40;99.90;;;;;;5024026;28;20502;-75
2021/03/24 08:31:27;;;;;;;73.23;36.00;;;8.40;99.90;;;;;;5022043;28;20417;-75
2021/03/24 08:34:14;;;;;;;85.77;39.50;;;8.50;99.90;;;;;;5023284;28;20425;-75
2021/03/24 08:37:17;;;;;;;70.83;35.93;;;8.40;99.90;;;;;;5022932;28;20425;-75
2021/03/24 08:40:27;;;;;;;77.73;38.90;;;8.40;99.90;;;;;;5023515;28;20448;-74
2021/03/24 08:43:01;;;;;;;67.60;35.70;;;8.60;99.90;;;;;;5022240;28;20426;-74
2021/03/24 08:45:51;;;;;;;76.07;37.73;;;8.60;99.90;;;;;;5022408;28;20494;-75
2021/03/24 08:48:34;;;;;;;70.80;38.30;;;8.60;99.90;;;;;;5023295;28;20945;-74
2021/03/24 08:51:19;;;;;;;65.40;36.13;;;8.80;99.90;;;;;;5021540;28;20432;-74
2021/03/24 08:54:02;;;;;;;68.50;38.70;;;8.90;99.90;;;;;;5023385;28;20475;-74
2021/03/24 08:56:46;;;;;;;68.90;36.43;;;8.90;99.90;;;;;;5019344;28;20559;-74
2021/03/24 08:59:25;;;;;;;68.37;36.33;;;9.00;99.90;;;;;;5023376;28;20704;-74
2021/03/24 09:02:16;;;;;;;66.33;35.43;;;9.20;99.90;;;;;;5022221;28;20925;-73
2021/03/24 09:05:08;;;;;;;69.43;34.37;;;9.30;99.90;;;;;;5021241;28;20553;-73
2021/03/24 09:08:03;;;;;;;64.93;34.77;;;9.50;99.90;;;;;;5022506;28;20436;-74
2021/03/24 09:10:44;;;;;;;68.27;36.53;;;9.60;99.90;;;;;;5014644;28;20852;-72
2021/03/24 09:13:29;;;;;;;66.97;36.77;;;9.80;99.90;;;;;;5023070;28;20840;-73
2021/03/24 09:16:31;;;;;;;66.30;35.60;;;9.80;99.90;;;;;;5020952;28;20436;-75
2021/03/24 09:19:29;;;;;;;65.10;34.70;;;9.90;99.90;;;;;;5022577;28;20452;-74
2021/03/24 09:22:13;;;;;;;62.80;33.33;;;9.90;99.90;;;;;;5022142;28;20717;-75
2021/03/24 09:25:11;;;;;;;77.57;37.83;;;9.90;99.90;;;;;;5020617;28;20425;-75
2021/03/24 09:27:57;;;;;;;64.40;38.03;;;9.80;99.90;;;;;;5021852;28;20433;-75
2021/03/24 09:30:41;;;;;;;68.00;35.63;;;9.90;99.90;;;;;;5016468;28;20424;-75
2021/03/24 09:33:25;;;;;;;54.73;34.40;;;10.10;99.90;;;;;;5024675;28;20420;-74
2021/03/24 09:36:09;;;;;;;62.47;33.63;;;10.10;99.90;;;;;;5022401;28;20629;-74
2021/03/24 09:38:39;;;;;;;53.03;31.40;;;10.10;99.90;;;;;;5022009;28;20452;-75
2021/03/24 09:41:28;;;;;;;64.20;35.53;;;10.20;99.90;;;;;;5018919;28;20429;-74
2021/03/24 09:44:02;;;;;;;56.70;33.00;;;10.40;99.90;;;;;;5021906;28;20432;-74
2021/03/24 09:46:46;;;;;;;66.27;34.40;;;10.30;99.90;;;;;;5022257;28;20428;-74
2021/03/24 09:49:20;;;;;;;67.43;37.17;;;10.40;99.90;;;;;;5023068;28;20432;-72
2021/03/24 09:51:57;;;;;;;66.13;36.27;;;10.50;99.90;;;;;;5022743;28;20931;-73
2021/03/24 09:54:27;;;;;;;65.70;35.40;;;10.40;99.90;;;;;;5020367;28;20456;-73
2021/03/24 09:57:12;;;;;;;65.10;36.47;;;10.50;99.90;;;;;;5023478;28;20433;-73
2021/03/24 10:00:09;;;;;;;63.53;37.40;;;10.60;99.90;;;;;;5021571;28;20432;-75
2021/03/24 10:02:47;;;;;;;66.70;37.70;;;10.60;99.90;;;;;;5006972;28;20439;-71
2021/03/24 10:05:14;;;;;;;62.70;35.47;;;10.60;99.90;;;;;;5024747;28;20940;-73
2021/03/24 10:07:44;;;;;;;64.30;34.20;;;10.60;99.90;;;;;;5012611;28;20475;-75
2021/03/24 10:10:16;;;;;;;63.73;35.37;;;10.70;99.90;;;;;;5022382;28;20482;-71
2021/03/24 10:12:47;;;;;;;67.83;36.07;;;10.90;99.90;;;;;;5023574;28;20567;-73
2021/03/24 10:15:52;;;;;;;62.10;33.63;;;10.90;99.90;;;;;;5021204;28;20922;-73
2021/03/24 10:18:25;;;;;;;61.50;35.33;;;11.00;99.90;;;;;;5020882;28;20465;-72
2021/03/24 10:20:51;;;;;;;54.97;32.30;;;11.20;99.90;;;;;;5023145;28;20455;-73
2021/03/24 10:23:20;;;;;;;58.00;30.40;;;11.50;99.90;;;;;;5021182;28;20775;-76
2021/03/24 10:25:50;;;;;;;54.07;31.70;;;11.50;99.90;;;;;;5021057;28;20237;-75
2021/03/24 10:28:41;;;;;;;45.23;26.63;;;11.60;99.90;;;;;;5022119;28;20429;-75
2021/03/24 10:31:22;;;;;;;53.97;29.80;;;11.70;99.90;;;;;;5021587;28;20495;-75
2021/03/24 10:33:58;;;;;;;52.90;32.10;;;11.70;99.90;;;;;;5019818;28;20515;-71
2021/03/24 10:36:35;;;;;;;54.30;31.63;;;11.60;99.90;;;;;;5020637;28;20455;-72
2021/03/24 10:39:33;;;;;;;49.20;29.00;;;11.40;99.90;;;;;;5021827;28;20458;-76
2021/03/24 10:42:15;;;;;;;44.73;27.20;;;11.40;99.90;;;;;;4995098;28;20441;-77
2021/03/24 10:44:50;;;;;;;44.50;28.37;;;11.50;99.90;;;;;;5022891;28;20752;-76
2021/03/24 10:47:22;;;;;;;51.17;28.10;;;11.40;99.90;;;;;;5022844;28;20476;-76
2021/03/24 10:50:14;;;;;;;51.07;29.47;;;11.70;99.90;;;;;;5021405;28;21008;-74
2021/03/24 10:52:58;;;;;;;51.77;31.07;;;11.90;99.90;;;;;;5021250;28;20758;-76
2021/03/24 10:55:25;;;;;;;49.87;27.67;;;11.90;99.90;;;;;;5004410;28;20823;-78
2021/03/24 10:57:51;;;;;;;50.60;28.10;;;11.90;99.90;;;;;;5019890;28;20788;-72
2021/03/24 11:00:24;;;;;;;49.27;27.47;;;11.80;99.90;;;;;;5019793;28;20441;-73
2021/03/24 11:02:58;;;;;;;44.30;28.07;;;11.90;99.90;;;;;;5021857;28;20194;-75
2021/03/24 11:05:36;;;;;;;42.80;26.10;;;12.00;99.90;;;;;;5021362;28;20913;-76
2021/03/24 11:08:27;;;;;;;46.33;26.70;;;12.20;99.90;;;;;;5021671;28;20436;-77
2021/03/24 11:11:06;;;;;;;49.27;29.37;;;12.30;99.90;;;;;;5020536;28;20554;-77
2021/03/24 11:13:42;;;;;;;54.40;30.27;;;12.40;99.90;;;;;;5020578;28;20751;-77
2021/03/24 11:16:09;;;;;;;43.33;27.27;;;12.40;99.90;;;;;;5020333;28;20432;-77
2021/03/24 11:18:50;;;;;;;53.53;28.53;;;12.50;99.90;;;;;;5020981;28;20464;-76
2021/03/24 11:21:39;;;;;;;46.90;28.03;;;12.70;99.90;;;;;;5021376;28;20425;-76
2021/03/24 11:24:25;;;;;;;45.40;28.93;;;13.00;99.90;;;;;;5023037;28;20906;-74
2021/03/24 11:27:08;;;;;;;49.43;28.50;;;13.30;99.90;;;;;;5020448;28;20943;-75
2021/03/24 11:29:56;;;;;;;48.07;28.80;;;13.40;99.90;;;;;;5021446;28;20431;-77
2021/03/24 11:32:41;;;;;;;48.10;29.70;;;13.10;99.90;;;;;;5003789;28;20439;-76
2021/03/24 11:35:13;;;;;;;46.50;28.70;;;12.80;99.90;;;;;;5019001;28;20925;-72
2021/03/24 11:38:00;;;;;;;47.07;28.40;;;12.70;99.90;;;;;;5020783;28;20452;-75
2021/03/24 11:40:29;;;;;;;41.83;28.67;;;12.70;99.90;;;;;;5020330;28;20429;-75
2021/03/24 11:43:01;;;;;;;47.60;26.40;;;12.70;99.90;;;;;;5019213;28;20753;-77
2021/03/24 11:45:29;;;;;;;46.13;29.03;;;12.80;99.90;;;;;;5020741;28;20479;-76
2021/03/24 11:48:19;;;;;;;45.33;27.80;;;13.00;99.90;;;;;;5021228;28;20452;-75
2021/03/24 11:50:52;;;;;;;48.97;28.60;;;13.10;99.90;;;;;;5020670;28;20449;-76
2021/03/24 11:53:49;;;;;;;54.30;29.83;;;13.20;99.90;;;;;;5020142;28;20587;-75
2021/03/24 11:56:33;;;;;;;42.93;29.90;;;13.50;99.90;;;;;;5023421;28;20579;-76
2021/03/24 11:59:26;;;;;;;50.10;29.37;;;14.00;99.90;;;;;;5023392;28;20445;-75
2021/03/24 12:02:14;;;;;;;44.90;27.13;;;14.40;99.90;;;;;;5024267;28;20427;-75
2021/03/24 12:04:53;;;;;;;43.97;27.93;;;14.40;99.90;;;;;;5022876;28;20430;-76
2021/03/24 12:07:46;;;;;;;47.40;30.30;;;14.20;99.90;;;;;;5024728;28;20452;-71
2021/03/24 12:10:12;;;;;;;52.50;29.47;;;14.30;99.90;;;;;;5024696;28;20437;-71
2021/03/24 12:12:38;;;;;;;47.03;29.00;;;14.30;99.90;;;;;;5024333;28;20430;-71
2021/03/24 12:15:17;;;;;;;45.43;29.97;;;14.20;99.90;;;;;;5022959;28;20182;-72
2021/03/24 12:17:42;;;;;;;48.23;28.30;;;13.90;99.90;;;;;;5024355;28;20951;-74
2021/03/24 12:20:17;;;;;;;43.53;29.00;;;13.80;99.90;;;;;;5021989;28;20428;-74
2021/03/24 12:22:51;;;;;;;46.90;27.73;;;13.90;99.90;;;;;;5023299;28;20192;-75
2021/03/24 12:25:27;;;;;;;44.40;28.30;;;14.00;99.90;;;;;;5021509;28;20437;-75
2021/03/24 12:27:59;;;;;;;49.83;30.43;;;14.00;99.90;;;;;;5022112;28;20444;-75
2021/03/24 12:30:37;;;;;;;46.37;29.40;;;14.00;99.90;;;;;;5021787;28;20431;-75
2021/03/24 12:33:15;;;;;;;46.87;29.53;;;13.90;99.90;;;;;;5023935;28;21004;-76
2021/03/24 12:35:46;;;;;;;46.07;28.90;;;13.70;99.90;;;;;;5023924;28;20810;-75
2021/03/24 12:38:14;;;;;;;48.00;28.80;;;13.90;99.90;;;;;;5007633;28;20476;-73
2021/03/24 12:40:57;;;;;;;47.70;28.63;;;14.10;99.90;;;;;;5024231;28;20428;-72
2021/03/24 12:43:34;;;;;;;46.57;27.33;;;14.40;99.90;;;;;;5024811;28;20425;-74
2021/03/24 12:46:17;;;;;;;46.77;27.50;;;14.60;99.90;;;;;;5022597;28;20924;-75
2021/03/24 12:48:52;;;;;;;50.50;29.67;;;14.70;99.90;;;;;;5022032;28;20760;-75
2021/03/24 12:51:18;;;;;;;46.00;28.20;;;14.80;99.90;;;;;;5022089;28;20507;-76
2021/03/24 12:54:01;;;;;;;39.30;27.13;;;14.80;99.90;;;;;;5021462;28;20986;-75
2021/03/24 12:56:30;;;;;;;49.27;29.30;;;14.70;99.90;;;;;;5005890;28;20182;-75
2021/03/24 12:58:58;;;;;;;52.00;30.57;;;14.90;99.90;;;;;;5019536;28;20869;-73
2021/03/24 13:01:44;;;;;;;46.90;28.97;;;15.20;99.90;;;;;;5021289;28;20479;-72
2021/03/24 13:04:34;;;;;;;42.30;28.50;;;15.40;99.90;;;;;;5021903;28;20427;-74
2021/03/24 13:07:29;;;;;;;48.10;28.00;;;15.40;99.90;;;;;;5021895;28;20814;-75
2021/03/24 13:10:17;;;;;;;45.90;29.83;;;15.50;99.90;;;;;;5021417;28;20433;-75
2021/03/24 13:13:03;;;;;;;48.00;28.53;;;15.40;99.90;;;;;;5024457;28;20464;-73
2021/03/24 13:15:35;;;;;;;56.10;30.73;;;15.40;99.90;;;;;;5011151;28;20827;-71
2021/03/24 13:18:07;;;;;;;46.87;28.67;;;15.50;99.90;;;;;;5023262;28;20771;-72
2021/03/24 13:21:16;;;;;;;47.73;28.10;;;15.60;99.90;;;;;;5022814;28;20432;-76
2021/03/24 13:24:03;;;;;;;44.10;29.07;;;16.00;99.90;;;;;;4960977;28;20768;-73
2021/03/24 13:26:37;;;;;;;40.73;28.83;;;16.40;99.90;;;;;;5020330;28;20737;-72